Goldfield, Nevada Weather observations

Data are for observation ending at time listed.
 Day   Time    Ave.   Ave.  Ave.  Vector   Max.   Stn.    Total    Solar   Ave.  
  of    of     Air    Rel.  Wind   Wind    Wind   Baro.  Precip.   Rad.    Soil  
Year   Day     Temp.  Hum.  Speed  Dir.    Gust   Pres.                    Temp. 
2014   (PST)    F      %     mph   deg.    mph     mb.     in.     W/m2     F   
------------------------------------------------------------------------------
 329   21:40   39.7    36    2.6    99      4.9   839.6    0.00       0    41.3
 329   21:50   41.1    35    2.5   110      5.3   839.7    0.00       0    41.2
 329   22:00   42.5    34    3.3   144      4.7   839.7    0.00       0    41.1
 329   22:10   43.1    33    1.8   158      3.7   839.7    0.00       0    41.1
 329   22:20   42.1    34    1.1   156      2.7   839.8    0.00       0    40.9
 329   22:30   39.8    37    2.1   139      3.0   839.9    0.00       0    40.9
 329   22:40   39.3    37    2.4   140      4.0   839.9    0.00       0    40.8
 329   22:50   40.2    37    2.2   162      3.8   839.9    0.00       0    40.8
 329   23:00   40.0    37    2.9   216      3.6   839.8    0.00       0    40.7
 329   23:10   41.1    36    3.0   208      3.7   839.7    0.00       0    40.6
 329   23:20   39.8    37    3.1   180      4.5   839.7    0.00       0    40.5
 329   23:30   39.9    37    2.4   177      3.9   839.7    0.00       0    40.4
 329   23:40   41.4    36    1.7   188      2.4   839.6    0.00       0    40.4
 329   23:50   43.2    34    1.8   221      2.4   839.6    0.00       0    40.3
 330    0:00   42.1    34    1.0     0      2.9   839.6    0.00       0    40.2
 330    0:10   39.3    36    0.9    61      2.1   839.6    0.00       0    40.1
 330    0:20   39.7    37    1.3   128      2.5   839.6    0.00       0    40.1
 330    0:30   41.7    35    2.5   142      3.1   839.6    0.00       0    40.0
 330    0:40   41.2    35    2.1   154      3.4   839.5    0.00       0    40.0
 330    0:50   39.5    36    2.1   147      3.4   839.5    0.00       0    39.8
 330    1:00   38.0    38    1.9   135      2.9   839.5    0.00       0    39.8
 330    1:10   37.7    39    2.1   152      3.7   839.5    0.00       0    39.7
 330    1:20   37.5    38    2.4   135      3.7   839.5    0.00       0    39.7
 330    1:30   37.2    39    2.9   139      3.7   839.5    0.00       0    39.6
 330    1:40   37.9    39    1.9   202      2.8   839.5    0.00       0    39.5
 330    1:50   38.6    38    0.3   201      1.3   839.6    0.00       0    39.4
 330    2:00   39.1    38    2.4   220      3.0   839.5    0.00       0    39.4
 330    2:10   40.3    37    0.6   133      1.4   839.5    0.00       0    39.3
 330    2:20   40.4    36    1.0   130      2.8   839.5    0.00       0    39.3
 330    2:30   39.2    38    1.6   140      2.6   839.4    0.00       0    39.1
 330    2:40   39.6    37    1.3   158      2.2   839.2    0.00       0    39.1
 330    2:50   40.1    36    2.1   137      3.0   839.2    0.00       0    39.0
 330    3:00   37.5    39    1.3   126      2.0   839.2    0.00       0    39.1
 330    3:10   35.3    42    1.0   129      2.5   839.2    0.00       0    39.0
 330    3:20   36.4    42    1.5   159      2.5   839.2    0.00       0    39.0
 330    3:30   38.3    39    2.2   138      3.7   839.2    0.00       0    38.8
 330    3:40   38.7    39    3.1   138      4.3   839.2    0.00       0    38.8
 330    3:50   38.5    39    2.9   138      4.1   839.1    0.00       0    38.7
 330    4:00   36.8    41    2.6   148      3.5   839.2    0.00       0    38.6
 330    4:10   36.4    42    1.1   170      2.2   839.1    0.00       0    38.5
 330    4:20   36.3    42    1.1   122      2.5   839.2    0.00       0    38.5
 330    4:30   37.1    41    0.8   186      2.6   839.2    0.00       0    38.4
 330    4:40   37.4    41    0.3   109      0.9   839.2    0.00       0    38.5
 330    4:50   37.5    41    0.7   346      1.5   839.2    0.00       0    38.4
 330    5:00   36.7    42    1.5   252      3.2   839.2    0.00       0    38.2
 330    5:10   37.4    40    1.5   233      2.6   839.2    0.00       0    38.1
 330    5:20   38.6    39    2.3   139      3.1   839.2    0.00       0    38.1
 330    5:30   39.1    38    2.0   146      2.8   839.3    0.00       0    38.1
 330    5:40   38.4    39    1.6   177      2.2   839.3    0.00       0    38.0
 330    5:50   37.1    40    2.1   165      3.6   839.3    0.00       0    38.0
 330    6:00   36.5    41    2.0   186      3.4   839.4    0.00       0    37.9
 330    6:10   36.4    41    2.2   176      3.1   839.5    0.00       0    37.8
 330    6:20   36.5    42    3.0   160      3.7   839.5    0.00       0    37.8
 330    6:30   36.9    41    2.7   156      4.6   839.5    0.00       0    37.8
 330    6:40   36.3    42    1.7   204      2.3   839.5    0.00       2    37.7
 330    6:50   36.1    42    1.3   120      2.6   839.6    0.00       6    37.6
 330    7:00   35.9    43    2.0   139      2.9   839.6    0.00      12    37.7
 330    7:10   37.7    40    0.9   163      1.6   839.7    0.00      41    37.6
 330    7:20   38.9    39    2.5   145      3.5   839.8    0.00      65    37.5
 330    7:30   39.6    39    1.1   140      1.9   840.0    0.00      96    37.4
 330    7:40   40.1    39    0.9   177      1.5   840.0    0.00     130    37.3
 330    7:50   41.8    37    0.3   198      1.5   840.0    0.00     159    37.4
 330    8:00   43.0    36    0.1    84      1.1   840.1    0.00     174    37.4
 330    8:10   46.3    32    1.1   109      1.6   840.2    0.00     205    37.6
 330    8:20   49.4    28    0.3   111      1.5   840.3    0.00     230    37.5
 330    8:30   52.8    25    1.1    10      2.3   840.4    0.00     261    37.6
 330    8:40   51.8    26    1.5   340      2.8   840.4    0.00     289    37.6
 330    8:50   52.0    26    1.0     2      2.0   840.5    0.00     309    37.7
 330    9:00   53.8    25    1.0   338      2.6   840.5    0.00      97    37.7
 330    9:10   53.9    25    1.2   324      2.2   840.5    0.00     309    37.7
 330    9:20   53.5    25    2.0   316      3.4   840.6    0.00     379    37.7
 330    9:30   52.5    26    1.6   308      3.4   840.6    0.00     398    37.8
 330    9:40   55.0    24    1.7   358      3.1   840.6    0.00     420    37.9
 330    9:50   54.4    24    2.2     2      4.0   840.5    0.00     438    38.0
 330   10:00   54.7    24    1.8   339      4.2   840.4    0.00     453    38.2
 330   10:10   55.8    23    2.1   357      4.0   840.3    0.00     469    38.4
 330   10:20   56.4    22    1.8   354      3.9   840.2    0.00     482    38.4
 330   10:30   57.5    22    1.2   334      2.9   840.1    0.00     493    38.6
 330   10:40   59.0    21    1.5   356      3.7   839.9    0.00     502    38.6
 330   10:50   59.7    20    1.6   318      3.7   839.8    0.00     510    38.8
 330   11:00   59.3    21    2.7   336      5.2   839.6    0.00     518    38.8
 330   11:10   58.4    22    3.1   333      5.0   839.5    0.00     522    38.9
 330   11:20   59.3    21    2.2   324      4.4   839.3    0.00     524    39.0
 330   11:30   60.5    20    2.5   315      4.9   839.1    0.00     525    39.1
 330   11:40   60.5    20    2.4   343      5.3   839.0    0.00     528    39.2
 330   11:50   60.5    20    3.0   339      5.5   839.0    0.00     524    39.3
 330   12:00   60.7    20    2.3   333      4.9   838.9    0.00     521    39.4
 330   12:10   60.2    21    2.5   344      5.3   838.7    0.00     516    39.6
 330   12:20   60.5    20    2.5   329      4.8   838.6    0.00     508    39.7
 330   12:30   61.0    20    2.1   343      4.7   838.4    0.00     500    39.9
 330   12:40   62.0    19    0.9   330      2.7   838.2    0.00     492    40.1
 330   12:50   62.9    19    2.1   333      4.2   838.1    0.00     479    40.2
 330   13:00   63.0    19    1.8   337      3.8   837.9    0.00     465    40.4
 330   13:10   63.7    18    2.4     6      4.5   837.8    0.00     451    40.7
 330   13:20   64.3    18    2.8   343      4.9   837.7    0.00     435    41.1
 330   13:30   64.6    18    3.6   332      6.6   837.7    0.00     417    41.0
 330   13:40   64.6    18    4.1   329      6.5   837.7    0.00     398    41.4
 330   13:50   65.2    17    5.1   320      8.3   837.6    0.00     378    41.6
 330   14:00   65.3    17    5.7   326      8.5   837.6    0.00     357    41.8
 330   14:10   65.5    17    6.3   344      9.7   837.5    0.00     334    42.2
 330   14:20   66.0    16    6.2   340      9.9   837.4    0.00     311    42.4
 330   14:30   66.1    16    6.3   338     11.2   837.5    0.00     286    42.5
 330   14:40   66.3    16    6.1   335      9.8   837.4    0.00     262    42.8
 330   14:50   66.3    16    5.5   335      8.8   837.3    0.00     237    43.1
 330   15:00   66.4    15    4.0   331      7.7   837.3    0.00     212    43.2
 330   15:10   66.5    16    3.1   339      5.8   837.2    0.00     187    43.5
 330   15:20   66.5    15    3.5   326      6.0   837.3    0.00     162    43.6
 330   15:30   66.5    15    1.9   312      3.8   837.3    0.00     137    43.8
 330   15:40   65.6    15    2.1   221      3.0   837.3    0.00     103    43.9
 330   15:50   63.0    16    2.8   233      3.7   837.2    0.00      51    44.1
 330   16:00   59.4    18    3.3   228      4.0   837.2    0.00      15    44.2
 330   16:10   57.8    19    3.2   222      3.9   837.2    0.00      15    44.4
 330   16:20   57.8    19    3.2   228      3.7   837.3    0.00      11    44.5
 330   16:30   57.5    19    2.5   250      3.5   837.3    0.00       8    44.7
 330   16:40   57.4    20    2.0   243      3.4   837.3    0.00       5    44.7
 330   16:50   56.1    20    3.5   122      5.2   837.4    0.00       2    44.7
 330   17:00   55.3    21    1.7   124      3.9   837.5    0.00       0    44.8
 330   17:10   53.3    22    1.5   130      3.1   837.5    0.00       0    44.8
 330   17:20   53.1    22    2.9   150      5.0   837.5    0.00       0    44.8
 330   17:30   53.2    22    4.4   187      5.4   837.6    0.00       0    44.8
 330   17:40   53.5    22    5.2   150      9.1   837.6    0.00       0    44.8
 330   17:50   54.5    22    6.7   140      9.5   837.7    0.00       0    44.8
 330   18:00   54.0    23    6.2   137      8.4   837.7    0.00       0    44.7
 330   18:10   53.7    23    6.6   148      9.6   837.7    0.00       0    44.7
 330   18:20   54.2    23    5.0   136      7.9   837.7    0.00       0    44.7
 330   18:30   54.5    23    7.5   156     10.3   837.8    0.00       0    44.6
 330   18:40   54.2    24    6.6   167     10.0   837.8    0.00       0    44.7
 330   18:50   54.5    24    7.8   179     10.2   837.8    0.00       0    44.7
 330   19:00   54.5    24    6.6   182      8.6   837.9    0.00       0    44.6
 330   19:10   54.2    24    5.5   177      9.1   837.9    0.00       0    44.6
 330   19:20   53.6    25    6.3   163      8.5   838.0    0.00       0    44.6
 330   19:30   53.2    25    7.7   166     10.4   837.9    0.00       0    44.5
 330   19:40   52.2    26    9.1   168     10.6   837.9    0.00       0    44.7
 330   19:50   52.9    25    8.2   169      9.6   837.9    0.00       0    44.6
 330   20:00   53.6    25    8.3   171     10.3   837.8    0.00       0    44.6
 330   20:10   54.0    24    7.9   165      9.6   837.8    0.00       0    44.6
 330   20:20   53.6    25    8.2   165      9.6   837.7    0.00       0    44.6
 330   20:30   53.5    25    8.6   167     11.0   837.7    0.00       0    44.6
 330   20:40   52.6    25    8.5   161      9.9   837.7    0.00       0    44.5
 330   20:50   52.6    25    7.9   160      9.3   837.8    0.00       0    44.5
 330   21:00   52.6    25    9.9   164     12.2   837.8    0.00       0    44.5
 330   21:10   52.8    25   10.4   173     13.3   837.8    0.00       0    44.5
 330   21:20   52.8    25    6.8   162      9.6   837.6    0.00       0    44.5
 330   21:30   52.8    25    6.0   140      8.5   837.6    0.00       0    44.4

Return to Goldfield, Nevada graphs page.


Western Regional Climate Center,wrcc@dri.edu